Time;durP1;ratioP1;P1;durP2;ratioP2;P2;SDS_P1;SDS_P2;PMS_P1;PMS_P2;Temp;Humidity;BMP_temperature;BMP_pressure;BME280_temperature;BME280_humidity;BME280_pressure;Samples;Min_cycle;Max_cycle;Signal;HPM_P1;HPM_P2
2022/10/25 00:02:17;;;;;;;17.60;8.75;;;13.00;99.90;;;;;;6249522;22;20012;-81
2022/10/25 00:04:43;;;;;;;15.07;7.85;;;13.00;99.90;;;;;;6248769;22;20022;-81
2022/10/25 00:07:09;;;;;;;18.55;11.35;;;13.00;99.90;;;;;;6276651;22;20023;-81
2022/10/25 00:09:34;;;;;;;17.60;9.77;;;13.00;99.90;;;;;;6277316;22;20008;-82
2022/10/25 00:12:00;;;;;;;21.80;9.77;;;12.90;99.90;;;;;;6248867;22;20027;-81
2022/10/25 00:14:26;;;;;;;13.30;7.53;;;13.00;99.90;;;;;;6249298;22;20239;-82
2022/10/25 00:16:51;;;;;;;17.60;9.80;;;12.90;99.90;;;;;;6249894;22;20027;-81
2022/10/25 00:19:17;;;;;;;13.43;7.30;;;12.90;99.90;;;;;;6275562;22;20366;-82
2022/10/25 00:21:42;;;;;;;19.02;11.80;;;12.90;99.90;;;;;;6276515;22;20023;-81
2022/10/25 00:24:10;;;;;;;17.85;10.75;;;12.90;99.90;;;;;;6275730;22;20022;-81
2022/10/25 00:26:35;;;;;;;13.27;7.45;;;12.90;99.90;;;;;;6249327;22;20016;-82
2022/10/25 00:29:01;;;;;;;13.50;8.05;;;12.90;99.90;;;;;;6250443;22;20378;-82
2022/10/25 00:31:26;;;;;;;15.88;9.68;;;12.90;99.90;;;;;;6248695;22;20518;-81
2022/10/25 00:33:52;;;;;;;19.98;11.32;;;12.90;99.90;;;;;;6250181;22;20019;-81
2022/10/25 00:36:21;;;;;;;16.98;10.80;;;12.90;99.90;;;;;;6277150;22;20015;-81
2022/10/25 00:38:47;;;;;;;22.15;12.30;;;12.90;99.90;;;;;;6275974;22;20047;-82
2022/10/25 00:41:16;;;;;;;18.02;10.55;;;12.90;99.90;;;;;;6276208;22;20015;-82
2022/10/25 00:43:51;;;;;;;17.42;10.85;;;12.90;99.90;;;;;;6276644;22;20012;-81
2022/10/25 00:46:19;;;;;;;15.50;10.30;;;12.90;99.90;;;;;;6247241;22;20099;-81
2022/10/25 00:48:54;;;;;;;16.08;10.18;;;12.90;99.90;;;;;;6249411;22;20058;-81
2022/10/25 00:51:29;;;;;;;21.52;12.30;;;12.90;99.90;;;;;;6248447;22;20016;-81
2022/10/25 00:53:55;;;;;;;23.55;13.23;;;12.90;99.90;;;;;;6248395;22;20023;-82
2022/10/25 00:56:24;;;;;;;25.60;14.02;;;12.90;99.90;;;;;;6249049;22;20018;-82
2022/10/25 00:58:54;;;;;;;25.00;13.68;;;12.90;99.90;;;;;;6276761;22;20046;-82
2022/10/25 01:01:20;;;;;;;20.92;13.15;;;12.90;99.90;;;;;;6274962;22;20455;-82
2022/10/25 01:03:50;;;;;;;18.42;11.77;;;12.90;99.90;;;;;;6249257;22;20010;-82
2022/10/25 01:06:32;;;;;;;25.02;13.77;;;12.90;99.90;;;;;;6248698;22;20023;-82
2022/10/25 01:08:58;;;;;;;23.35;12.82;;;12.90;99.90;;;;;;6276133;22;20066;-82
2022/10/25 01:11:23;;;;;;;20.17;12.40;;;12.90;99.90;;;;;;6248845;22;20016;-82
2022/10/25 01:13:50;;;;;;;22.92;11.90;;;12.90;99.90;;;;;;6248200;22;20018;-82
2022/10/25 01:16:21;;;;;;;21.20;11.77;;;12.90;99.90;;;;;;6248701;22;20043;-81
2022/10/25 01:19:20;;;;;;;16.85;10.85;;;12.90;99.90;;;;;;6249007;22;20471;-82
2022/10/25 01:22:02;;;;;;;16.42;10.30;;;12.90;99.90;;;;;;6217802;22;20016;-82
2022/10/25 01:24:49;;;;;;;17.38;10.68;;;12.90;99.90;;;;;;6248873;22;20012;-82
2022/10/25 01:27:30;;;;;;;16.35;11.10;;;12.90;99.90;;;;;;6275361;22;20025;-81
2022/10/25 01:30:20;;;;;;;23.13;11.98;;;12.90;99.90;;;;;;6276192;22;20446;-81
2022/10/25 01:32:56;;;;;;;22.40;12.20;;;12.90;99.90;;;;;;6248506;22;20024;-82
2022/10/25 01:35:33;;;;;;;15.88;9.63;;;12.90;99.90;;;;;;6247660;22;20011;-82
2022/10/25 01:38:19;;;;;;;20.60;12.32;;;12.90;99.90;;;;;;6276726;22;20335;-82
2022/10/25 01:41:18;;;;;;;17.15;10.38;;;12.90;99.90;;;;;;6276328;22;20043;-82
2022/10/25 01:44:15;;;;;;;15.02;9.60;;;12.90;99.90;;;;;;6274721;22;20459;-82
2022/10/25 01:46:57;;;;;;;14.68;9.60;;;12.90;99.90;;;;;;6248556;22;20024;-82
2022/10/25 01:49:46;;;;;;;20.65;11.88;;;12.90;99.90;;;;;;6274759;22;20023;-82
2022/10/25 01:52:13;;;;;;;21.10;12.52;;;12.90;99.90;;;;;;6275848;22;20038;-83
2022/10/25 01:54:39;;;;;;;15.05;10.38;;;12.90;99.90;;;;;;6248187;22;20012;-83
2022/10/25 01:57:29;;;;;;;24.83;12.60;;;13.00;99.90;;;;;;6247514;22;20012;-83
2022/10/25 02:00:01;;;;;;;14.23;10.25;;;13.00;99.90;;;;;;6275951;22;20024;-83
2022/10/25 02:02:35;;;;;;;17.33;10.70;;;13.00;99.90;;;;;;6248502;22;20047;-83
2022/10/25 02:05:21;;;;;;;19.55;10.80;;;13.00;99.90;;;;;;6276281;22;20023;-83
2022/10/25 02:07:55;;;;;;;22.83;12.35;;;13.00;99.90;;;;;;6276195;22;20015;-83
2022/10/25 02:11:02;;;;;;;18.70;11.38;;;13.10;99.90;;;;;;6247491;22;20445;-82
2022/10/25 02:13:47;;;;;;;18.38;11.38;;;13.10;99.90;;;;;;6246939;22;20069;-83
2022/10/25 02:16:24;;;;;;;16.88;10.15;;;13.10;99.90;;;;;;6275317;22;20545;-83
2022/10/25 02:18:54;;;;;;;19.85;11.38;;;13.10;99.90;;;;;;6275249;22;20035;-83
2022/10/25 02:21:21;;;;;;;21.50;12.65;;;13.10;99.90;;;;;;6248273;22;20050;-82
2022/10/25 02:23:48;;;;;;;18.80;11.45;;;13.10;99.90;;;;;;6247502;22;20039;-83
2022/10/25 02:26:15;;;;;;;21.17;11.80;;;13.10;99.90;;;;;;6248333;22;20051;-83
2022/10/25 02:28:41;;;;;;;20.48;11.98;;;13.10;99.90;;;;;;6248324;22;20012;-82
2022/10/25 02:31:10;;;;;;;20.90;11.85;;;13.20;99.90;;;;;;6247680;22;20018;-82
2022/10/25 02:33:37;;;;;;;20.70;11.23;;;13.10;99.90;;;;;;6248645;22;20011;-83
2022/10/25 02:36:12;;;;;;;20.13;11.48;;;13.20;99.90;;;;;;6248498;22;20023;-82
2022/10/25 02:38:38;;;;;;;19.90;11.20;;;13.20;99.90;;;;;;6275124;22;20051;-82
2022/10/25 02:41:05;;;;;;;18.80;11.02;;;13.20;99.90;;;;;;6248774;22;20545;-83
2022/10/25 02:43:31;;;;;;;18.98;10.55;;;13.20;99.90;;;;;;6248651;22;20086;-83
2022/10/25 02:45:57;;;;;;;21.30;12.82;;;13.20;99.90;;;;;;6249450;22;20475;-83
2022/10/25 02:48:22;;;;;;;18.63;10.55;;;13.20;99.90;;;;;;6249961;22;20020;-83
2022/10/25 02:50:48;;;;;;;22.88;12.00;;;13.20;99.90;;;;;;6277923;22;20015;-82
2022/10/25 02:53:14;;;;;;;17.95;11.60;;;13.20;99.90;;;;;;6276390;22;20027;-82
2022/10/25 02:55:39;;;;;;;18.58;11.50;;;13.20;99.90;;;;;;6278138;22;20027;-83
2022/10/25 02:58:05;;;;;;;19.33;11.38;;;13.20;99.90;;;;;;6250331;22;20007;-83
2022/10/25 03:00:31;;;;;;;24.08;12.88;;;13.20;99.90;;;;;;6248531;22;20141;-83
2022/10/25 03:02:56;;;;;;;21.15;11.70;;;13.20;99.90;;;;;;6277596;22;20007;-83
2022/10/25 03:05:22;;;;;;;20.08;10.88;;;13.20;99.90;;;;;;6249283;22;20023;-83
2022/10/25 03:07:47;;;;;;;22.50;12.30;;;13.20;99.90;;;;;;6276269;22;20020;-82
2022/10/25 03:10:13;;;;;;;22.92;11.25;;;13.20;99.90;;;;;;6277125;22;20301;-82
2022/10/25 03:12:38;;;;;;;19.80;11.90;;;13.20;99.90;;;;;;6248198;22;20039;-83
2022/10/25 03:15:05;;;;;;;19.00;11.05;;;13.30;99.90;;;;;;6274364;22;20030;-83
2022/10/25 03:17:30;;;;;;;23.80;12.00;;;13.20;99.90;;;;;;6248383;22;20011;-82
2022/10/25 03:19:56;;;;;;;23.13;10.82;;;13.20;99.90;;;;;;6248785;22;20016;-82
2022/10/25 03:22:21;;;;;;;15.38;9.38;;;13.20;99.90;;;;;;6248249;22;20087;-82
2022/10/25 03:24:47;;;;;;;15.48;9.63;;;13.20;99.90;;;;;;6249538;22;20028;-83
2022/10/25 03:27:12;;;;;;;14.95;9.38;;;13.20;99.90;;;;;;6275802;22;20015;-83
2022/10/25 03:29:38;;;;;;;22.35;11.48;;;13.20;99.90;;;;;;6249618;22;20019;-83
2022/10/25 03:32:06;;;;;;;15.65;9.32;;;13.20;99.90;;;;;;6277474;22;20030;-83
2022/10/25 03:34:32;;;;;;;17.30;8.90;;;13.20;99.90;;;;;;6276466;22;20327;-83
2022/10/25 03:36:58;;;;;;;18.85;10.30;;;13.20;99.90;;;;;;6277060;22;20016;-83
2022/10/25 03:39:23;;;;;;;19.08;10.73;;;13.20;99.90;;;;;;6249756;22;20011;-83
2022/10/25 03:41:49;;;;;;;18.70;10.60;;;13.20;99.90;;;;;;6248803;22;20016;-83
2022/10/25 03:44:15;;;;;;;17.38;10.25;;;13.20;99.90;;;;;;6249546;22;20091;-83
2022/10/25 03:46:41;;;;;;;22.20;10.60;;;13.20;99.90;;;;;;6249485;22;20020;-83
2022/10/25 03:49:06;;;;;;;19.38;10.93;;;13.20;99.90;;;;;;6248875;22;20443;-82
2022/10/25 03:51:32;;;;;;;21.85;11.23;;;13.20;99.90;;;;;;6276778;22;20026;-83
2022/10/25 03:53:57;;;;;;;23.73;10.70;;;13.20;99.90;;;;;;6249221;22;20027;-83
2022/10/25 03:56:23;;;;;;;20.40;10.27;;;13.20;99.90;;;;;;6275527;22;20019;-82
2022/10/25 03:58:49;;;;;;;21.30;10.52;;;13.20;99.90;;;;;;6249852;22;20451;-82
2022/10/25 04:01:14;;;;;;;21.80;11.60;;;13.20;99.90;;;;;;6249255;22;20067;-82
2022/10/25 04:03:40;;;;;;;23.30;10.27;;;13.20;99.90;;;;;;6276348;22;20015;-83
2022/10/25 04:06:05;;;;;;;24.10;12.27;;;13.20;99.90;;;;;;6249658;22;20331;-83
2022/10/25 04:08:31;;;;;;;22.65;10.95;;;13.20;99.90;;;;;;6249103;22;20058;-83
2022/10/25 04:10:57;;;;;;;25.08;11.45;;;13.30;99.90;;;;;;6247864;22;20016;-83
2022/10/25 04:13:22;;;;;;;20.17;11.15;;;13.20;99.90;;;;;;6249440;22;20015;-83
2022/10/25 04:15:48;;;;;;;23.52;11.93;;;13.20;99.90;;;;;;6249036;22;20012;-83
2022/10/25 04:18:13;;;;;;;22.77;10.65;;;13.20;99.90;;;;;;6275067;22;20020;-84
2022/10/25 04:20:39;;;;;;;19.17;10.52;;;13.20;99.90;;;;;;6276607;22;20016;-83
2022/10/25 04:23:04;;;;;;;23.50;10.18;;;13.20;99.90;;;;;;6249262;22;20470;-83
2022/10/25 04:25:30;;;;;;;21.27;10.45;;;13.20;99.90;;;;;;6248250;22;20129;-82
2022/10/25 04:27:58;;;;;;;17.00;9.13;;;13.20;99.90;;;;;;6249617;22;20185;-82
2022/10/25 04:30:23;;;;;;;19.60;10.55;;;13.20;99.90;;;;;;6275557;22;20031;-83
2022/10/25 04:32:49;;;;;;;19.50;10.57;;;13.20;99.90;;;;;;6249437;22;20443;-83
2022/10/25 04:35:15;;;;;;;17.48;9.63;;;13.30;99.90;;;;;;6249113;22;20020;-83
2022/10/25 04:37:40;;;;;;;19.48;9.93;;;13.20;99.90;;;;;;6248152;22;20478;-83
2022/10/25 04:40:07;;;;;;;23.10;11.57;;;13.20;99.90;;;;;;6249072;22;20022;-83
2022/10/25 04:42:33;;;;;;;17.67;10.32;;;13.30;99.90;;;;;;6249293;22;20015;-83
2022/10/25 04:44:59;;;;;;;22.08;11.35;;;13.20;99.90;;;;;;6275589;22;20012;-83
2022/10/25 04:47:25;;;;;;;17.85;9.98;;;13.30;99.90;;;;;;6248586;22;20459;-83
2022/10/25 04:49:50;;;;;;;18.58;9.45;;;13.30;99.90;;;;;;6248888;22;20019;-82
2022/10/25 04:52:18;;;;;;;18.40;9.00;;;13.20;99.90;;;;;;6247709;22;20316;-82
2022/10/25 04:54:43;;;;;;;28.08;11.82;;;13.20;99.90;;;;;;6249791;22;20034;-82
2022/10/25 04:57:09;;;;;;;20.75;10.20;;;13.20;99.90;;;;;;6275868;22;20467;-82
2022/10/25 04:59:34;;;;;;;18.10;9.55;;;13.20;99.90;;;;;;6248453;22;20015;-83
2022/10/25 05:02:00;;;;;;;21.15;10.23;;;13.20;99.90;;;;;;6276187;22;20020;-83
2022/10/25 05:04:25;;;;;;;26.40;10.98;;;13.20;99.90;;;;;;6249102;22;20018;-83
2022/10/25 05:06:51;;;;;;;27.70;11.50;;;13.20;99.90;;;;;;6275519;22;20019;-83
2022/10/25 05:09:16;;;;;;;20.20;10.13;;;13.20;99.90;;;;;;6276410;22;20095;-83
2022/10/25 05:11:42;;;;;;;24.48;10.48;;;13.20;99.90;;;;;;6249458;22;20011;-83
2022/10/25 05:14:07;;;;;;;18.52;9.48;;;13.20;99.90;;;;;;6248246;22;20019;-83
2022/10/25 05:16:34;;;;;;;21.15;10.18;;;13.20;99.90;;;;;;6277165;22;20058;-82
2022/10/25 05:19:00;;;;;;;20.85;9.98;;;13.20;99.90;;;;;;6249050;22;20023;-82
2022/10/25 05:21:29;;;;;;;22.48;10.60;;;13.20;99.90;;;;;;6249531;22;20019;-95
2022/10/25 05:23:57;;;;;;;27.85;11.18;;;13.20;99.90;;;;;;6251315;22;20012;-92
2022/10/25 05:26:22;;;;;;;24.88;9.85;;;13.20;99.90;;;;;;6250316;22;20016;-94
2022/10/25 05:28:50;;;;;;;17.27;8.23;;;13.20;99.90;;;;;;6250499;22;20057;-94
2022/10/25 05:31:22;;;;;;;29.67;10.68;;;13.20;99.90;;;;;;6248624;22;20070;-82
2022/10/25 05:33:49;;;;;;;22.23;8.80;;;13.20;99.90;;;;;;6275581;22;20022;-83
2022/10/25 05:36:15;;;;;;;18.33;8.13;;;13.20;99.90;;;;;;6240617;22;20435;-83
2022/10/25 05:41:15;;;;;;;24.23;8.27;;;13.10;99.90;;;;;;6265120;22;20362;-82
2022/10/25 05:44:01;;;;;;;17.40;8.05;;;13.20;99.90;;;;;;6272912;22;20023;-83
2022/10/25 05:46:27;;;;;;;17.98;8.88;;;13.10;99.90;;;;;;6239937;22;20019;-83
2022/10/25 05:48:52;;;;;;;23.00;8.60;;;13.10;99.90;;;;;;6246511;22;20058;-83
2022/10/25 05:51:20;;;;;;;20.50;8.50;;;13.10;99.90;;;;;;6273990;22;20020;-82
2022/10/25 05:53:50;;;;;;;13.98;7.28;;;13.10;99.90;;;;;;6228123;22;20051;-82
2022/10/25 05:56:24;;;;;;;14.63;6.90;;;13.10;99.90;;;;;;6222853;22;20035;-84
2022/10/25 05:58:50;;;;;;;18.55;7.95;;;13.10;99.90;;;;;;6242257;23;20023;-85
2022/10/25 06:01:18;;;;;;;16.17;7.55;;;13.00;99.90;;;;;;6241315;23;20009;-83
2022/10/25 06:03:47;;;;;;;17.45;8.27;;;13.00;99.90;;;;;;6245176;23;20009;-84
2022/10/25 06:06:13;;;;;;;18.15;7.43;;;13.00;99.90;;;;;;6245125;23;20502;-84
2022/10/25 06:08:39;;;;;;;17.45;7.32;;;13.00;99.90;;;;;;6243303;23;20016;-84
2022/10/25 06:11:11;;;;;;;25.02;8.82;;;13.00;99.90;;;;;;6248461;22;20015;-84
2022/10/25 06:13:37;;;;;;;16.65;7.93;;;13.00;99.90;;;;;;6277078;22;20370;-84
2022/10/25 06:16:04;;;;;;;21.17;8.13;;;13.00;99.90;;;;;;6275351;22;20389;-84
2022/10/25 06:18:30;;;;;;;17.58;7.45;;;13.00;99.90;;;;;;6274592;22;20020;-84
2022/10/25 06:21:03;;;;;;;18.33;7.40;;;13.00;99.90;;;;;;6248574;22;20512;-84
2022/10/25 06:23:30;;;;;;;16.70;6.63;;;13.00;99.90;;;;;;6277134;22;20033;-84
2022/10/25 06:26:00;;;;;;;14.23;6.60;;;13.00;99.90;;;;;;6278204;22;20242;-85
2022/10/25 06:28:27;;;;;;;19.50;7.20;;;13.00;99.90;;;;;;6250884;22;20458;-85
2022/10/25 06:30:52;;;;;;;17.45;6.85;;;13.00;99.90;;;;;;6276254;22;20463;-85
2022/10/25 06:33:18;;;;;;;16.65;6.65;;;13.00;99.90;;;;;;6245906;22;20025;-85
2022/10/25 06:35:43;;;;;;;17.27;6.38;;;12.90;99.90;;;;;;6249164;22;20019;-85
2022/10/25 06:38:09;;;;;;;18.33;6.45;;;12.90;99.90;;;;;;6219411;22;20027;-82
2022/10/25 06:40:35;;;;;;;18.90;6.00;;;12.90;99.90;;;;;;6241922;23;20447;-82
2022/10/25 06:43:00;;;;;;;19.90;6.22;;;12.90;99.90;;;;;;6212519;23;20016;-82
2022/10/25 06:45:26;;;;;;;18.65;6.70;;;12.90;99.90;;;;;;6244116;23;20039;-82
2022/10/25 06:47:52;;;;;;;26.35;7.07;;;12.90;99.90;;;;;;6218019;23;20044;-82
2022/10/25 06:50:17;;;;;;;20.17;6.72;;;12.90;99.90;;;;;;6246242;23;20081;-82
2022/10/25 06:52:43;;;;;;;17.15;6.60;;;12.90;99.90;;;;;;6219482;23;20019;-82
2022/10/25 06:55:08;;;;;;;15.15;5.90;;;12.90;99.90;;;;;;6246961;23;20058;-82
2022/10/25 06:57:34;;;;;;;14.80;5.80;;;12.90;99.90;;;;;;6219042;23;20023;-82
2022/10/25 07:00:00;;;;;;;21.55;6.90;;;12.90;99.90;;;;;;6219559;23;20079;-81
2022/10/25 07:02:26;;;;;;;23.33;6.72;;;12.90;99.90;;;;;;6217813;23;20026;-82
2022/10/25 07:04:52;;;;;;;19.45;6.47;;;12.90;99.90;;;;;;6218583;23;20027;-82
2022/10/25 07:07:17;;;;;;;16.67;5.88;;;12.90;99.90;;;;;;6216834;23;20017;-81
2022/10/25 07:09:43;;;;;;;14.10;5.97;;;12.90;99.90;;;;;;6246175;23;20055;-81
2022/10/25 07:12:08;;;;;;;18.42;6.88;;;12.90;99.90;;;;;;6246319;23;20024;-81
2022/10/25 07:14:34;;;;;;;28.75;7.95;;;12.90;99.90;;;;;;6246914;23;20313;-82
2022/10/25 07:16:59;;;;;;;26.10;7.90;;;12.90;99.90;;;;;;6245369;23;20539;-82
2022/10/25 07:19:25;;;;;;;16.52;6.55;;;13.00;99.90;;;;;;6218783;23;20095;-82
2022/10/25 07:21:51;;;;;;;21.42;7.30;;;13.00;99.90;;;;;;6219277;23;20031;-82
2022/10/25 07:24:16;;;;;;;28.77;7.95;;;12.90;99.90;;;;;;6220366;23;20019;-81
2022/10/25 07:26:42;;;;;;;27.80;8.20;;;13.00;99.90;;;;;;6218324;23;20073;-81
2022/10/25 07:29:08;;;;;;;28.90;8.27;;;13.00;99.90;;;;;;6246671;23;20008;-81
2022/10/25 07:31:37;;;;;;;20.88;7.82;;;13.00;99.90;;;;;;6219014;23;20146;-82
2022/10/25 07:34:04;;;;;;;22.77;7.60;;;13.00;99.90;;;;;;6218175;23;20035;-81
2022/10/25 07:36:29;;;;;;;23.05;7.95;;;13.10;99.90;;;;;;6219688;23;20012;-81
2022/10/25 07:38:56;;;;;;;16.25;6.00;;;13.10;99.90;;;;;;6246465;23;20016;-81
2022/10/25 07:41:22;;;;;;;22.25;7.90;;;13.10;99.90;;;;;;6219247;23;20436;-81
2022/10/25 07:43:48;;;;;;;24.65;7.97;;;13.10;99.90;;;;;;6246200;23;20031;-82
2022/10/25 07:46:13;;;;;;;27.63;8.00;;;13.10;99.90;;;;;;6242206;23;20008;-81
2022/10/25 07:48:39;;;;;;;21.67;7.38;;;13.10;99.90;;;;;;6243193;23;20012;-81
2022/10/25 07:51:11;;;;;;;17.92;6.65;;;13.10;99.90;;;;;;6216607;23;20063;-82
2022/10/25 07:53:36;;;;;;;32.67;9.32;;;13.10;99.90;;;;;;6218624;23;20077;-82
2022/10/25 07:56:02;;;;;;;25.10;8.65;;;13.20;99.90;;;;;;6216465;23;20395;-81
2022/10/25 07:58:28;;;;;;;22.70;8.10;;;13.20;99.90;;;;;;6216994;23;20051;-82
2022/10/25 08:01:06;;;;;;;29.30;8.15;;;13.20;99.90;;;;;;6212807;23;20016;-82
2022/10/25 08:03:32;;;;;;;21.10;7.93;;;13.20;99.90;;;;;;6246172;23;20233;-83
2022/10/25 08:05:58;;;;;;;26.52;9.10;;;13.30;99.90;;;;;;6218245;23;20245;-82
2022/10/25 08:08:25;;;;;;;33.20;10.63;;;13.30;99.90;;;;;;6218677;23;20016;-83
2022/10/25 08:10:51;;;;;;;20.35;7.57;;;13.30;99.90;;;;;;6246033;23;20462;-84
2022/10/25 08:13:16;;;;;;;24.40;9.32;;;13.30;99.90;;;;;;6219259;23;20090;-83
2022/10/25 08:15:52;;;;;;;27.30;9.95;;;13.30;99.90;;;;;;6245063;23;20464;-84
2022/10/25 08:18:18;;;;;;;29.65;9.65;;;13.40;99.90;;;;;;6219315;23;20017;-82
2022/10/25 08:20:44;;;;;;;24.83;10.05;;;13.40;99.90;;;;;;6245841;23;20039;-84
2022/10/25 08:23:09;;;;;;;28.27;10.82;;;13.40;99.90;;;;;;6245484;23;20024;-83
2022/10/25 08:25:35;;;;;;;29.33;10.85;;;13.50;99.90;;;;;;6246002;23;20018;-83
2022/10/25 08:28:00;;;;;;;34.20;12.23;;;13.50;99.90;;;;;;6245541;23;20024;-83
2022/10/25 08:30:26;;;;;;;25.02;11.05;;;13.60;99.90;;;;;;6245727;23;20047;-82
2022/10/25 08:32:52;;;;;;;34.70;12.20;;;13.60;99.90;;;;;;6219033;23;20447;-82
2022/10/25 08:35:17;;;;;;;25.50;10.52;;;13.60;99.90;;;;;;6217102;23;20027;-83
2022/10/25 08:37:43;;;;;;;30.98;11.75;;;13.70;99.90;;;;;;6244393;23;20016;-82
2022/10/25 08:40:23;;;;;;;19.92;9.00;;;13.60;99.90;;;;;;6218718;23;20028;-82
2022/10/25 08:42:55;;;;;;;29.63;12.93;;;13.70;99.90;;;;;;6245332;23;20008;-82
2022/10/25 08:45:36;;;;;;;25.25;10.82;;;13.70;99.90;;;;;;6246267;23;20424;-82
2022/10/25 08:48:03;;;;;;;26.55;11.40;;;13.80;99.90;;;;;;6218620;23;20463;-83
2022/10/25 08:50:39;;;;;;;25.25;11.05;;;13.80;99.90;;;;;;6216535;23;20020;-81
2022/10/25 08:53:12;;;;;;;28.70;11.05;;;13.80;99.90;;;;;;6218837;23;20020;-81
2022/10/25 08:55:41;;;;;;;27.33;11.32;;;13.80;99.90;;;;;;6219050;23;20008;-81
2022/10/25 08:58:15;;;;;;;25.60;8.90;;;13.90;99.90;;;;;;6217849;23;20027;-81
2022/10/25 09:00:43;;;;;;;23.35;8.70;;;13.90;99.90;;;;;;6217064;23;20008;-82
2022/10/25 09:03:23;;;;;;;25.15;9.75;;;13.90;99.90;;;;;;6245547;23;20400;-82
2022/10/25 09:05:58;;;;;;;20.65;8.98;;;13.90;99.90;;;;;;6215459;23;20050;-82
2022/10/25 09:08:49;;;;;;;24.00;8.85;;;13.90;99.90;;;;;;6218932;23;20506;-82
2022/10/25 09:11:33;;;;;;;25.83;8.65;;;14.00;99.90;;;;;;6245703;23;20016;-82
2022/10/25 09:14:57;;;;;;;24.98;9.60;;;14.10;99.90;;;;;;6218602;23;20027;-82
2022/10/25 09:17:40;;;;;;;21.50;8.20;;;14.10;99.90;;;;;;6126297;23;20530;-81
2022/10/25 09:20:30;;;;;;;21.50;7.82;;;14.10;99.90;;;;;;6147152;23;20525;-82
2022/10/25 09:23:05;;;;;;;22.90;7.53;;;14.20;99.90;;;;;;6206425;23;20024;-82
2022/10/25 09:25:51;;;;;;;19.98;7.43;;;14.20;99.90;;;;;;6218323;23;20058;-82
2022/10/25 09:28:51;;;;;;;20.70;7.70;;;14.30;99.90;;;;;;6246239;23;20017;-83
2022/10/25 09:31:23;;;;;;;21.92;8.00;;;14.40;99.90;;;;;;6245193;23;20464;-82
2022/10/25 09:33:55;;;;;;;19.83;8.32;;;14.40;99.90;;;;;;6245242;23;20044;-82
2022/10/25 09:36:21;;;;;;;25.58;8.50;;;14.50;99.90;;;;;;6218513;23;20023;-82
2022/10/25 09:38:52;;;;;;;24.13;7.50;;;14.50;99.90;;;;;;6217162;23;20024;-82
2022/10/25 09:41:36;;;;;;;20.73;7.35;;;14.60;99.90;;;;;;6218673;23;20020;-82
2022/10/25 09:44:29;;;;;;;21.75;6.82;;;14.60;99.90;;;;;;6214647;23;20020;-82
2022/10/25 09:47:24;;;;;;;21.05;6.90;;;14.70;99.90;;;;;;6217535;23;20066;-82
2022/10/25 09:50:07;;;;;;;17.85;6.22;;;14.70;99.90;;;;;;6218712;23;20012;-83
2022/10/25 09:52:48;;;;;;;16.95;6.45;;;14.80;99.90;;;;;;6244643;23;20012;-82
2022/10/25 09:55:19;;;;;;;17.08;6.00;;;14.80;99.90;;;;;;6218557;23;20020;-82
2022/10/25 09:57:45;;;;;;;24.23;7.15;;;14.80;99.90;;;;;;6245779;23;20050;-82
2022/10/25 10:00:14;;;;;;;19.70;6.75;;;14.90;99.90;;;;;;6217769;23;20012;-82
2022/10/25 10:02:40;;;;;;;16.73;5.75;;;14.90;99.90;;;;;;6218882;23;20375;-82
2022/10/25 10:05:14;;;;;;;19.63;5.88;;;14.90;99.90;;;;;;6245260;23;20344;-82
2022/10/25 10:07:40;;;;;;;23.80;5.90;;;15.00;99.90;;;;;;6217741;23;20012;-82
2022/10/25 10:10:14;;;;;;;18.77;4.82;;;15.00;99.90;;;;;;6245584;23;20012;-82
2022/10/25 10:12:56;;;;;;;21.15;5.72;;;15.00;99.90;;;;;;6243009;23;20340;-81
2022/10/25 10:15:33;;;;;;;14.73;5.07;;;15.00;99.90;;;;;;6213501;23;20091;-82
2022/10/25 10:18:22;;;;;;;18.83;5.57;;;15.00;99.90;;;;;;6241977;23;20038;-81
2022/10/25 10:21:18;;;;;;;19.00;5.63;;;15.00;99.90;;;;;;6239960;23;20468;-81
2022/10/25 10:24:00;;;;;;;11.95;4.95;;;15.10;99.90;;;;;;6214787;23;20020;-82
2022/10/25 10:26:53;;;;;;;16.02;5.50;;;15.10;99.90;;;;;;6217385;23;20452;-82
2022/10/25 10:29:33;;;;;;;15.20;5.73;;;15.10;99.90;;;;;;6244893;23;20008;-82
2022/10/25 10:32:34;;;;;;;15.35;5.38;;;15.10;99.90;;;;;;6213830;23;20024;-82
2022/10/25 10:35:03;;;;;;;17.67;5.00;;;15.10;99.90;;;;;;6215531;23;20526;-82
2022/10/25 10:37:31;;;;;;;18.33;5.07;;;15.20;99.90;;;;;;6218122;23;20062;-82
2022/10/25 10:40:01;;;;;;;18.13;5.65;;;15.20;99.90;;;;;;6218453;23;20132;-82
2022/10/25 10:42:31;;;;;;;14.93;5.40;;;15.20;99.90;;;;;;6251482;23;20020;-82
2022/10/25 10:45:17;;;;;;;14.73;4.70;;;15.30;99.90;;;;;;6218952;23;20020;-82
2022/10/25 10:47:48;;;;;;;15.77;4.90;;;15.40;99.90;;;;;;6223107;23;20105;-81
2022/10/25 10:50:23;;;;;;;18.00;4.78;;;15.40;99.90;;;;;;6217584;23;20016;-82
2022/10/25 10:52:51;;;;;;;17.75;4.70;;;15.40;99.90;;;;;;6245899;23;20016;-83
2022/10/25 10:55:36;;;;;;;13.52;4.28;;;15.50;99.90;;;;;;6218629;23;20017;-82
2022/10/25 10:58:46;;;;;;;19.23;4.20;;;15.50;99.90;;;;;;6217757;23;20311;-82
2022/10/25 11:01:17;;;;;;;16.23;3.97;;;15.60;99.90;;;;;;6152909;23;20040;-82
2022/10/25 11:03:43;;;;;;;9.77;3.40;;;15.70;99.90;;;;;;6151625;23;20018;-82
2022/10/25 11:06:28;;;;;;;13.82;3.63;;;15.70;99.90;;;;;;6204530;23;20082;-83
2022/10/25 11:09:11;;;;;;;17.38;3.72;;;15.70;99.90;;;;;;6220381;23;20020;-82
2022/10/25 11:11:40;;;;;;;14.97;3.73;;;15.70;99.90;;;;;;6218969;23;20524;-82
2022/10/25 11:14:14;;;;;;;15.55;3.58;;;15.80;99.90;;;;;;6246972;23;20066;-82
2022/10/25 11:17:01;;;;;;;15.90;4.13;;;15.80;99.90;;;;;;6220219;23;20016;-81
2022/10/25 11:19:45;;;;;;;12.45;3.83;;;15.80;99.90;;;;;;6219226;23;20016;-81
2022/10/25 11:22:34;;;;;;;12.52;3.67;;;15.90;99.90;;;;;;6244766;23;20376;-82
2022/10/25 11:25:12;;;;;;;13.60;3.50;;;15.90;99.90;;;;;;6240770;23;20321;-81
2022/10/25 11:28:08;;;;;;;15.43;3.65;;;15.80;99.90;;;;;;6242831;23;20066;-84
2022/10/25 11:31:04;;;;;;;12.82;3.45;;;15.90;99.90;;;;;;6214918;23;20445;-87
2022/10/25 11:33:46;;;;;;;11.95;3.40;;;15.90;99.90;;;;;;6219567;23;20074;-87
2022/10/25 11:36:19;;;;;;;15.65;3.53;;;15.90;99.90;;;;;;6246582;23;20339;-82
2022/10/25 11:39:23;;;;;;;12.40;3.22;;;16.00;99.90;;;;;;6247578;23;20055;-82
2022/10/25 11:42:04;;;;;;;15.00;3.58;;;16.00;99.90;;;;;;6129018;23;20450;-81
2022/10/25 11:44:57;;;;;;;12.80;3.67;;;16.00;99.90;;;;;;6206737;23;20091;-81
2022/10/25 11:47:50;;;;;;;15.70;3.72;;;16.10;99.90;;;;;;6247240;23;20104;-80
2022/10/25 11:50:27;;;;;;;12.65;3.20;;;16.20;99.90;;;;;;6245782;23;20036;-81
2022/10/25 11:53:14;;;;;;;13.93;3.83;;;16.20;99.90;;;;;;6246389;23;20011;-81
2022/10/25 11:56:01;;;;;;;11.98;3.40;;;16.20;99.70;;;;;;6220955;23;20012;-81
2022/10/25 11:58:26;;;;;;;11.48;3.88;;;16.30;99.90;;;;;;6220950;23;20448;-81
2022/10/25 12:01:01;;;;;;;12.45;3.72;;;16.40;99.90;;;;;;6219162;23;20016;-81
2022/10/25 12:03:26;;;;;;;11.45;3.65;;;16.40;99.70;;;;;;6221604;23;20024;-81
2022/10/25 12:06:14;;;;;;;12.25;3.78;;;16.40;99.60;;;;;;6219402;23;20012;-81
2022/10/25 12:09:24;;;;;;;15.15;3.65;;;16.50;99.20;;;;;;6220130;23;20016;-81
2022/10/25 12:12:02;;;;;;;9.38;3.08;;;16.40;98.90;;;;;;6129701;23;20022;-81
2022/10/25 12:14:41;;;;;;;13.68;3.30;;;16.50;99.10;;;;;;6216323;23;20028;-81
2022/10/25 12:17:24;;;;;;;9.25;2.50;;;16.50;99.00;;;;;;6247249;23;20016;-81
2022/10/25 12:19:51;;;;;;;14.80;2.67;;;16.50;98.80;;;;;;6249811;23;20055;-81
2022/10/25 12:22:24;;;;;;;8.40;2.97;;;16.50;98.80;;;;;;6246459;23;20505;-80
2022/10/25 12:25:22;;;;;;;12.25;3.33;;;16.50;98.70;;;;;;6218996;23;20055;-81
2022/10/25 12:27:54;;;;;;;13.32;3.33;;;16.50;98.50;;;;;;6217997;23;20060;-81
2022/10/25 12:30:20;;;;;;;11.02;3.10;;;16.50;98.60;;;;;;6218982;23;20012;-81
2022/10/25 12:32:52;;;;;;;13.93;3.50;;;16.50;98.60;;;;;;6217144;23;20322;-82
2022/10/25 12:35:27;;;;;;;14.13;2.90;;;16.50;98.40;;;;;;6245245;23;20432;-81
2022/10/25 12:37:55;;;;;;;12.30;3.17;;;16.50;98.40;;;;;;6218910;23;20024;-82
2022/10/25 12:40:24;;;;;;;8.50;2.83;;;16.50;98.40;;;;;;6219071;23;20321;-81
2022/10/25 12:43:09;;;;;;;13.27;3.20;;;16.50;98.50;;;;;;6217077;23;20399;-81
2022/10/25 12:45:44;;;;;;;11.00;3.33;;;16.50;98.30;;;;;;6218525;23;20016;-81
2022/10/25 12:48:38;;;;;;;10.25;2.75;;;16.50;98.70;;;;;;6216708;23;20042;-80
2022/10/25 12:51:31;;;;;;;10.80;3.28;;;16.50;98.60;;;;;;6216317;23;20102;-81
2022/10/25 12:54:11;;;;;;;10.43;2.97;;;16.50;98.50;;;;;;6241424;23;20012;-82
2022/10/25 12:56:52;;;;;;;10.38;2.92;;;16.50;98.40;;;;;;6218203;23;20031;-81
2022/10/25 12:59:44;;;;;;;11.43;2.85;;;16.50;98.40;;;;;;6218880;23;20035;-81
2022/10/25 13:02:41;;;;;;;14.95;3.47;;;16.50;98.20;;;;;;6216430;23;20044;-81